Time,TemperatureF,DewpointF,PressureIn,WindDirection,WindDirectionDegrees,WindSpeedMPH,WindSpeedGustMPH,Humidity,HourlyPrecipIn,Conditions,Clouds,dailyrainin,SoftwareType,DateUTC
2013-07-23 00:55:00,80.6,75.0,30.08,SSW,198,0.0,4.0,83,0.00,,SCT200,0.00,VWS V14.00,2013-07-23 04:55:00,
2013-07-23 01:55:00,79.6,74.7,30.07,SSW,196,0.0,4.0,85,0.00,,SCT200,0.00,VWS V14.00,2013-07-23 05:55:00,
2013-07-23 02:55:00,78.9,75.1,30.06,SSW,196,1.0,3.0,88,0.00,,BKN200,0.00,VWS V14.00,2013-07-23 06:55:00,
2013-07-23 03:55:00,78.1,74.9,30.05,SSW,196,0.0,2.0,90,0.00,,BKN200,0.00,VWS V14.00,2013-07-23 07:55:00,
2013-07-23 04:55:00,77.1,74.6,30.03,SSW,196,0.0,2.0,92,0.00,,SCT250,0.00,VWS V14.00,2013-07-23 08:55:00,
2013-07-23 05:55:00,76.8,74.3,30.03,SSW,196,0.0,1.0,92,0.00,,FEW250,0.00,VWS V14.00,2013-07-23 09:55:00,
2013-07-23 06:55:00,76.7,74.5,30.06,SSW,196,0.0,2.0,93,0.00,,CLR,0.00,VWS V14.00,2013-07-23 10:55:00,
2013-07-23 07:55:00,79.6,76.1,30.06,SW,236,0.0,4.0,89,0.00,,BKN250,0.00,VWS V14.00,2013-07-23 11:55:00,
2013-07-23 08:55:00,82.7,77.4,30.07,SSW,204,0.0,5.0,84,0.00,,BKN250,0.00,VWS V14.00,2013-07-23 12:55:00,
2013-07-23 09:55:00,84.3,75.9,30.06,WSW,240,0.0,6.0,76,0.00,,SCT250,0.00,VWS V14.00,2013-07-23 13:55:00,
2013-07-23 10:55:00,87.8,76.4,30.06,SSW,202,0.0,5.0,69,0.00,,SCT250,0.00,VWS V14.00,2013-07-23 14:55:00,
2013-07-23 11:55:00,85.7,76.9,30.06,ESE,119,4.0,10.0,75,0.00,,SCT250,0.00,VWS V14.00,2013-07-23 15:55:00,
2013-07-23 12:55:00,87.6,78.7,30.04,South,178,5.0,11.0,75,0.00,,BKN250,0.00,VWS V14.00,2013-07-23 16:55:00,
2013-07-23 13:55:00,86.4,77.9,30.02,SSE,162,3.0,12.0,76,0.00,,SCT250,0.00,VWS V14.00,2013-07-23 17:55:00,
2013-07-23 14:55:00,87.5,78.2,30.00,SSE,163,4.0,11.0,74,0.00,,SCT250,0.00,VWS V14.00,2013-07-23 18:55:00,
2013-07-23 15:55:00,88.1,77.5,29.98,SSE,166,0.0,12.0,71,0.00,,SCT250,0.00,VWS V14.00,2013-07-23 19:55:00,
2013-07-23 16:55:00,87.3,77.6,29.97,SSW,192,4.0,14.0,73,0.00,,SCT250,0.00,VWS V14.00,2013-07-23 20:55:00,
2013-07-23 17:55:00,85.3,77.3,29.96,South,180,1.0,13.0,77,0.00,, +RA,0.00,VWS V14.00,2013-07-23 21:55:00,
2013-07-23 18:55:00,85.6,76.4,29.95,SE,135,1.0,13.0,74,0.00,,-RA,0.00,VWS V14.00,2013-07-23 22:55:00,
2013-07-23 19:55:00,83.4,75.4,29.95,SSW,198,0.0,15.0,77,0.00,,SCT065,0.00,VWS V14.00,2013-07-23 23:55:00,
2013-07-23 20:55:00,82.7,75.2,29.95,South,184,0.0,11.0,78,0.00,,SCT250,0.00,VWS V14.00,2013-07-24 00:55:00,
2013-07-23 21:55:00,82.5,74.9,29.98,SE,142,0.0,13.0,78,0.00,,SCT250,0.00,VWS V14.00,2013-07-24 01:55:00,
2013-07-23 22:55:00,81.9,74.4,29.99,South,188,0.0,10.0,78,0.00,,SCT080,0.00,VWS V14.00,2013-07-24 02:55:00,